sensor_id;sensor_type;location;lat;lon;timestamp;pressure;altitude;pressure_sealevel;temperature;humidity
4814;BME280;15375;48.540;9.268;2023-06-26T00:01:25;97315.31;;;18.41;85.59
4814;BME280;15375;48.540;9.268;2023-06-26T00:03:55;97297.56;;;18.33;87.29
4814;BME280;15375;48.540;9.268;2023-06-26T00:06:20;97326.22;;;18.36;85.15
4814;BME280;15375;48.540;9.268;2023-06-26T00:08:45;97325.81;;;18.28;86.41
4814;BME280;15375;48.540;9.268;2023-06-26T00:11:10;97303.56;;;17.99;85.77
4814;BME280;15375;48.540;9.268;2023-06-26T00:13:36;97323.13;;;18.10;85.37
4814;BME280;15375;48.540;9.268;2023-06-26T00:16:01;97325.25;;;18.15;87.94
4814;BME280;15375;48.540;9.268;2023-06-26T00:18:28;97327.09;;;18.18;86.23
4814;BME280;15375;48.540;9.268;2023-06-26T00:20:54;97317.31;;;18.08;86.19
4814;BME280;15375;48.540;9.268;2023-06-26T00:23:19;97321.00;;;18.14;85.92
4814;BME280;15375;48.540;9.268;2023-06-26T00:25:44;97300.53;;;17.97;85.60
4814;BME280;15375;48.540;9.268;2023-06-26T00:28:10;97331.97;;;18.23;85.38
4814;BME280;15375;48.540;9.268;2023-06-26T00:30:35;97326.66;;;18.11;84.78
4814;BME280;15375;48.540;9.268;2023-06-26T00:33:01;97330.41;;;17.99;85.55
4814;BME280;15375;48.540;9.268;2023-06-26T00:35:27;97320.13;;;17.99;86.17
4814;BME280;15375;48.540;9.268;2023-06-26T00:37:52;97323.81;;;17.96;85.85
4814;BME280;15375;48.540;9.268;2023-06-26T00:40:17;97334.81;;;18.05;86.36
4814;BME280;15375;48.540;9.268;2023-06-26T00:42:43;97340.81;;;18.04;85.50
4814;BME280;15375;48.540;9.268;2023-06-26T00:45:08;97325.38;;;17.88;84.80
4814;BME280;15375;48.540;9.268;2023-06-26T00:47:34;97323.88;;;17.87;85.48
4814;BME280;15375;48.540;9.268;2023-06-26T00:49:59;97321.41;;;17.89;85.31
4814;BME280;15375;48.540;9.268;2023-06-26T00:52:25;97317.41;;;17.90;84.17
4814;BME280;15375;48.540;9.268;2023-06-26T00:54:51;97311.44;;;17.82;84.49
4814;BME280;15375;48.540;9.268;2023-06-26T00:57:18;97321.53;;;17.95;84.51
4814;BME280;15375;48.540;9.268;2023-06-26T00:59:43;97314.53;;;17.84;85.07
4814;BME280;15375;48.540;9.268;2023-06-26T01:02:08;97325.09;;;17.86;85.31
4814;BME280;15375;48.540;9.268;2023-06-26T01:04:35;97311.50;;;17.73;85.84
4814;BME280;15375;48.540;9.268;2023-06-26T01:07:01;97324.22;;;17.71;85.98
4814;BME280;15375;48.540;9.268;2023-06-26T01:09:28;97323.00;;;17.72;85.56
4814;BME280;15375;48.540;9.268;2023-06-26T01:11:54;97326.22;;;17.70;84.35
4814;BME280;15375;48.540;9.268;2023-06-26T01:14:20;97317.34;;;17.66;83.99
4814;BME280;15375;48.540;9.268;2023-06-26T01:16:46;97322.66;;;17.79;84.15
4814;BME280;15375;48.540;9.268;2023-06-26T01:19:27;97320.25;;;17.72;84.53
4814;BME280;15375;48.540;9.268;2023-06-26T01:27:36;97310.16;;;17.60;84.99
4814;BME280;15375;48.540;9.268;2023-06-26T01:30:03;97316.00;;;17.62;85.38
4814;BME280;15375;48.540;9.268;2023-06-26T01:32:31;97299.16;;;17.42;85.70
4814;BME280;15375;48.540;9.268;2023-06-26T01:34:57;97304.63;;;17.51;86.11
4814;BME280;15375;48.540;9.268;2023-06-26T01:37:23;97313.97;;;17.62;86.74
4814;BME280;15375;48.540;9.268;2023-06-26T01:39:48;97306.66;;;17.59;87.73
4814;BME280;15375;48.540;9.268;2023-06-26T01:42:13;97311.53;;;17.55;87.82
4814;BME280;15375;48.540;9.268;2023-06-26T01:44:44;97300.81;;;17.48;86.57
4814;BME280;15375;48.540;9.268;2023-06-26T01:47:12;97292.25;;;17.37;86.40
4814;BME280;15375;48.540;9.268;2023-06-26T01:49:56;97306.81;;;17.47;86.30
4814;BME280;15375;48.540;9.268;2023-06-26T01:52:28;97306.03;;;17.46;87.88
4814;BME280;15375;48.540;9.268;2023-06-26T01:57:38;97306.66;;;17.32;91.24
4814;BME280;15375;48.540;9.268;2023-06-26T02:00:04;97303.03;;;17.26;91.64
4814;BME280;15375;48.540;9.268;2023-06-26T02:02:31;97304.69;;;17.23;92.60
4814;BME280;15375;48.540;9.268;2023-06-26T02:04:56;97300.44;;;17.13;92.62
4814;BME280;15375;48.540;9.268;2023-06-26T02:07:22;97309.63;;;17.01;92.46
4814;BME280;15375;48.540;9.268;2023-06-26T02:09:47;97293.56;;;16.82;93.65
4814;BME280;15375;48.540;9.268;2023-06-26T02:12:13;97299.66;;;16.77;93.47
4814;BME280;15375;48.540;9.268;2023-06-26T02:14:38;97291.25;;;16.80;92.83
4814;BME280;15375;48.540;9.268;2023-06-26T02:17:04;97306.56;;;16.90;94.07
4814;BME280;15375;48.540;9.268;2023-06-26T02:19:29;97311.59;;;16.92;94.27
4814;BME280;15375;48.540;9.268;2023-06-26T02:21:55;97314.50;;;16.97;93.56
4814;BME280;15375;48.540;9.268;2023-06-26T02:24:20;97307.78;;;16.89;91.80
4814;BME280;15375;48.540;9.268;2023-06-26T02:26:45;97300.00;;;16.88;91.45
4814;BME280;15375;48.540;9.268;2023-06-26T02:29:11;97311.00;;;16.97;92.31
4814;BME280;15375;48.540;9.268;2023-06-26T02:31:37;97309.19;;;16.94;92.71
4814;BME280;15375;48.540;9.268;2023-06-26T02:34:03;97315.00;;;16.96;93.71
4814;BME280;15375;48.540;9.268;2023-06-26T02:36:28;97297.84;;;16.83;94.91
4814;BME280;15375;48.540;9.268;2023-06-26T02:38:54;97301.06;;;16.81;95.19
4814;BME280;15375;48.540;9.268;2023-06-26T02:41:19;97291.56;;;16.64;93.01
4814;BME280;15375;48.540;9.268;2023-06-26T02:43:44;97310.69;;;16.68;95.86
4814;BME280;15375;48.540;9.268;2023-06-26T02:46:10;97318.66;;;16.66;96.24
4814;BME280;15375;48.540;9.268;2023-06-26T02:48:35;97322.31;;;16.63;97.53
4814;BME280;15375;48.540;9.268;2023-06-26T02:51:00;97306.69;;;16.50;98.35
4814;BME280;15375;48.540;9.268;2023-06-26T02:53:26;97305.75;;;16.44;98.95
4814;BME280;15375;48.540;9.268;2023-06-26T02:55:51;97298.22;;;16.27;97.76
4814;BME280;15375;48.540;9.268;2023-06-26T02:58:16;97325.00;;;16.35;98.77
4814;BME280;15375;48.540;9.268;2023-06-26T03:00:42;97308.00;;;16.28;98.52
4814;BME280;15375;48.540;9.268;2023-06-26T03:03:09;97287.75;;;16.04;98.95
4814;BME280;15375;48.540;9.268;2023-06-26T03:05:34;97308.25;;;16.12;100.00
4814;BME280;15375;48.540;9.268;2023-06-26T03:07:59;97319.44;;;16.17;100.00
4814;BME280;15375;48.540;9.268;2023-06-26T03:10:24;97322.50;;;16.19;100.00
4814;BME280;15375;48.540;9.268;2023-06-26T03:12:50;97316.03;;;16.04;100.00
4814;BME280;15375;48.540;9.268;2023-06-26T03:15:15;97327.09;;;16.13;100.00
4814;BME280;15375;48.540;9.268;2023-06-26T03:17:41;97311.00;;;16.03;100.00
4814;BME280;15375;48.540;9.268;2023-06-26T03:20:07;97290.47;;;15.85;100.00
4814;BME280;15375;48.540;9.268;2023-06-26T03:22:33;97324.94;;;16.08;100.00
4814;BME280;15375;48.540;9.268;2023-06-26T03:24:58;97317.59;;;16.05;100.00
4814;BME280;15375;48.540;9.268;2023-06-26T03:27:24;97300.44;;;16.01;100.00
4814;BME280;15375;48.540;9.268;2023-06-26T03:29:52;97310.59;;;16.22;100.00
4814;BME280;15375;48.540;9.268;2023-06-26T03:32:17;97321.78;;;16.37;100.00
4814;BME280;15375;48.540;9.268;2023-06-26T03:34:43;97319.34;;;16.39;100.00
4814;BME280;15375;48.540;9.268;2023-06-26T03:37:08;97328.25;;;16.52;98.72
4814;BME280;15375;48.540;9.268;2023-06-26T03:39:33;97321.53;;;16.53;98.07
4814;BME280;15375;48.540;9.268;2023-06-26T03:41:59;97323.38;;;16.65;96.28
4814;BME280;15375;48.540;9.268;2023-06-26T03:44:26;97326.63;;;16.73;95.29
4814;BME280;15375;48.540;9.268;2023-06-26T03:46:51;97334.13;;;16.81;93.80
4814;BME280;15375;48.540;9.268;2023-06-26T03:49:17;97322.34;;;16.81;92.40
4814;BME280;15375;48.540;9.268;2023-06-26T03:51:43;97325.06;;;16.90;91.47
4814;BME280;15375;48.540;9.268;2023-06-26T03:54:09;97331.06;;;16.97;91.35
4814;BME280;15375;48.540;9.268;2023-06-26T03:56:34;97324.03;;;16.96;90.39
4814;BME280;15375;48.540;9.268;2023-06-26T03:58:59;97315.59;;;17.00;88.86
4814;BME280;15375;48.540;9.268;2023-06-26T04:01:25;97324.16;;;17.11;88.64
4814;BME280;15375;48.540;9.268;2023-06-26T04:03:50;97328.41;;;17.30;87.30
4814;BME280;15375;48.540;9.268;2023-06-26T04:06:16;97336.06;;;17.44;86.77
4814;BME280;15375;48.540;9.268;2023-06-26T04:08:41;97321.38;;;17.38;86.57
4814;BME280;15375;48.540;9.268;2023-06-26T04:11:07;97334.38;;;17.47;85.86
4814;BME280;15375;48.540;9.268;2023-06-26T04:13:32;97330.56;;;17.35;85.73
4814;BME280;15375;48.540;9.268;2023-06-26T04:15:57;97326.13;;;17.38;85.90
4814;BME280;15375;48.540;9.268;2023-06-26T04:18:23;97320.91;;;17.31;86.76
4814;BME280;15375;48.540;9.268;2023-06-26T04:21:05;97336.16;;;17.77;87.19
4814;BME280;15375;48.540;9.268;2023-06-26T04:23:35;97319.16;;;18.11;83.06
4814;BME280;15375;48.540;9.268;2023-06-26T04:26:04;97325.63;;;18.65;78.85
4814;BME280;15375;48.540;9.268;2023-06-26T04:28:33;97314.44;;;18.83;77.30
4814;BME280;15375;48.540;9.268;2023-06-26T04:31:00;97327.41;;;18.44;79.64
4814;BME280;15375;48.540;9.268;2023-06-26T04:33:26;97326.94;;;17.89;82.58
4814;BME280;15375;48.540;9.268;2023-06-26T04:35:51;97337.19;;;17.89;83.06
4814;BME280;15375;48.540;9.268;2023-06-26T04:38:18;97332.16;;;17.78;83.67
4814;BME280;15375;48.540;9.268;2023-06-26T04:40:43;97320.53;;;17.74;83.39
4814;BME280;15375;48.540;9.268;2023-06-26T04:43:09;97312.88;;;18.11;82.18
4814;BME280;15375;48.540;9.268;2023-06-26T04:45:34;97321.59;;;18.42;81.57
4814;BME280;15375;48.540;9.268;2023-06-26T04:47:59;97331.41;;;18.43;80.20
4814;BME280;15375;48.540;9.268;2023-06-26T04:50:25;97311.50;;;18.39;80.82
4814;BME280;15375;48.540;9.268;2023-06-26T04:52:51;97324.81;;;18.50;80.01
4814;BME280;15375;48.540;9.268;2023-06-26T04:55:16;97335.97;;;18.55;80.26
4814;BME280;15375;48.540;9.268;2023-06-26T04:57:42;97302.16;;;19.37;75.99
4814;BME280;15375;48.540;9.268;2023-06-26T05:00:07;97315.69;;;19.93;74.11
4814;BME280;15375;48.540;9.268;2023-06-26T05:02:36;97320.06;;;19.85;75.28
4814;BME280;15375;48.540;9.268;2023-06-26T05:05:01;97326.91;;;19.31;79.57
4814;BME280;15375;48.540;9.268;2023-06-26T05:07:27;97323.13;;;19.72;77.61
4814;BME280;15375;48.540;9.268;2023-06-26T05:09:52;97301.03;;;20.07;75.69
4814;BME280;15375;48.540;9.268;2023-06-26T05:12:18;97309.13;;;21.26;69.23
4814;BME280;15375;48.540;9.268;2023-06-26T05:14:43;97297.47;;;20.76;71.35
4814;BME280;15375;48.540;9.268;2023-06-26T05:17:08;97294.69;;;20.56;71.18
4814;BME280;15375;48.540;9.268;2023-06-26T05:19:34;97312.38;;;20.79;71.64
4814;BME280;15375;48.540;9.268;2023-06-26T05:22:00;97306.81;;;20.39;72.45
4814;BME280;15375;48.540;9.268;2023-06-26T05:24:30;97311.25;;;20.51;74.14
4814;BME280;15375;48.540;9.268;2023-06-26T05:26:55;97310.38;;;21.25;69.36
4814;BME280;15375;48.540;9.268;2023-06-26T05:29:21;97314.84;;;21.43;69.40
4814;BME280;15375;48.540;9.268;2023-06-26T05:31:47;97285.84;;;23.08;63.79
4814;BME280;15375;48.540;9.268;2023-06-26T05:34:15;97298.03;;;25.93;54.14
4814;BME280;15375;48.540;9.268;2023-06-26T05:36:42;97322.34;;;27.44;49.07
4814;BME280;15375;48.540;9.268;2023-06-26T05:39:09;97308.81;;;28.11;46.86
4814;BME280;15375;48.540;9.268;2023-06-26T05:41:34;97320.97;;;28.98;44.58
4814;BME280;15375;48.540;9.268;2023-06-26T05:44:00;97323.63;;;31.31;41.52
4814;BME280;15375;48.540;9.268;2023-06-26T05:46:25;97321.38;;;32.71;38.65
4814;BME280;15375;48.540;9.268;2023-06-26T05:48:51;97328.66;;;33.52;37.32
4814;BME280;15375;48.540;9.268;2023-06-26T05:51:16;97335.25;;;32.99;37.64
4814;BME280;15375;48.540;9.268;2023-06-26T05:53:42;97333.69;;;33.76;36.31
4814;BME280;15375;48.540;9.268;2023-06-26T05:56:08;97343.47;;;34.07;36.53
4814;BME280;15375;48.540;9.268;2023-06-26T05:58:34;97332.19;;;33.67;37.14
4814;BME280;15375;48.540;9.268;2023-06-26T06:00:59;97335.03;;;34.91;35.25
4814;BME280;15375;48.540;9.268;2023-06-26T06:03:25;97324.75;;;34.12;35.63
4814;BME280;15375;48.540;9.268;2023-06-26T06:05:50;97330.03;;;32.50;37.94
4814;BME280;15375;48.540;9.268;2023-06-26T06:08:15;97325.56;;;32.47;37.64
4814;BME280;15375;48.540;9.268;2023-06-26T06:10:41;97310.84;;;32.79;37.96
4814;BME280;15375;48.540;9.268;2023-06-26T06:13:07;97317.94;;;34.64;35.21
4814;BME280;15375;48.540;9.268;2023-06-26T06:15:32;97317.38;;;33.04;36.90
4814;BME280;15375;48.540;9.268;2023-06-26T06:17:57;97327.91;;;31.24;38.95
4814;BME280;15375;48.540;9.268;2023-06-26T06:20:23;97314.41;;;32.79;37.98
4814;BME280;15375;48.540;9.268;2023-06-26T06:22:48;97311.66;;;33.91;36.50
4814;BME280;15375;48.540;9.268;2023-06-26T06:25:14;97309.22;;;35.04;34.71
4814;BME280;15375;48.540;9.268;2023-06-26T06:27:39;97320.03;;;35.15;34.49
4814;BME280;15375;48.540;9.268;2023-06-26T06:30:05;97323.53;;;35.94;34.02
4814;BME280;15375;48.540;9.268;2023-06-26T06:32:31;97324.50;;;36.97;32.84
4814;BME280;15375;48.540;9.268;2023-06-26T06:34:56;97325.88;;;37.16;32.06
4814;BME280;15375;48.540;9.268;2023-06-26T06:37:22;97303.69;;;35.67;33.84
4814;BME280;15375;48.540;9.268;2023-06-26T06:39:47;97315.59;;;35.39;33.46
4814;BME280;15375;48.540;9.268;2023-06-26T06:42:13;97314.38;;;35.32;33.51
4814;BME280;15375;48.540;9.268;2023-06-26T06:44:38;97316.47;;;33.41;36.81
4814;BME280;15375;48.540;9.268;2023-06-26T06:47:04;97326.13;;;34.03;36.56
4814;BME280;15375;48.540;9.268;2023-06-26T06:49:29;97311.34;;;34.12;36.17
4814;BME280;15375;48.540;9.268;2023-06-26T06:51:54;97304.94;;;33.55;35.73
4814;BME280;15375;48.540;9.268;2023-06-26T06:54:20;97314.81;;;32.46;37.97
4814;BME280;15375;48.540;9.268;2023-06-26T06:56:45;97315.56;;;32.01;38.96
4814;BME280;15375;48.540;9.268;2023-06-26T06:59:11;97311.13;;;31.04;40.45
4814;BME280;15375;48.540;9.268;2023-06-26T07:01:36;97318.91;;;31.26;40.48
4814;BME280;15375;48.540;9.268;2023-06-26T07:04:01;97316.41;;;30.51;42.26
4814;BME280;15375;48.540;9.268;2023-06-26T07:06:29;97313.66;;;30.58;42.28
4814;BME280;15375;48.540;9.268;2023-06-26T07:08:54;97293.56;;;30.62;41.71
4814;BME280;15375;48.540;9.268;2023-06-26T07:11:20;97318.19;;;29.79;42.65
4814;BME280;15375;48.540;9.268;2023-06-26T07:13:45;97305.19;;;29.89;43.01
4814;BME280;15375;48.540;9.268;2023-06-26T07:16:10;97321.66;;;30.26;43.05
4814;BME280;15375;48.540;9.268;2023-06-26T07:18:38;97322.78;;;30.79;42.28
4814;BME280;15375;48.540;9.268;2023-06-26T07:21:03;97309.03;;;30.68;42.83
4814;BME280;15375;48.540;9.268;2023-06-26T07:23:29;97311.13;;;31.04;42.09
4814;BME280;15375;48.540;9.268;2023-06-26T07:25:55;97316.13;;;30.69;43.10
4814;BME280;15375;48.540;9.268;2023-06-26T07:28:20;97311.44;;;30.36;43.05
4814;BME280;15375;48.540;9.268;2023-06-26T07:30:46;97317.91;;;30.80;42.33
4814;BME280;15375;48.540;9.268;2023-06-26T07:33:11;97319.88;;;30.15;43.37
4814;BME280;15375;48.540;9.268;2023-06-26T07:35:37;97313.19;;;30.75;42.61
4814;BME280;15375;48.540;9.268;2023-06-26T07:38:02;97315.63;;;31.07;42.87
4814;BME280;15375;48.540;9.268;2023-06-26T07:40:27;97315.59;;;30.99;42.88
4814;BME280;15375;48.540;9.268;2023-06-26T07:42:53;97319.22;;;31.15;42.75
4814;BME280;15375;48.540;9.268;2023-06-26T07:45:19;97329.59;;;31.71;41.58
4814;BME280;15375;48.540;9.268;2023-06-26T07:47:45;97325.28;;;31.77;40.96
4814;BME280;15375;48.540;9.268;2023-06-26T07:50:11;97327.88;;;31.60;40.73
4814;BME280;15375;48.540;9.268;2023-06-26T07:52:36;97328.88;;;31.34;40.70
4814;BME280;15375;48.540;9.268;2023-06-26T07:55:02;97315.75;;;31.37;40.96
4814;BME280;15375;48.540;9.268;2023-06-26T07:57:29;97322.97;;;31.10;41.98
4814;BME280;15375;48.540;9.268;2023-06-26T07:59:55;97322.66;;;31.21;41.41
4814;BME280;15375;48.540;9.268;2023-06-26T08:02:21;97323.28;;;31.42;40.62
4814;BME280;15375;48.540;9.268;2023-06-26T08:04:47;97320.91;;;30.82;41.45
4814;BME280;15375;48.540;9.268;2023-06-26T08:07:12;97334.16;;;31.38;41.37
4814;BME280;15375;48.540;9.268;2023-06-26T08:09:39;97295.19;;;31.72;40.48
4814;BME280;15375;48.540;9.268;2023-06-26T08:12:04;97317.75;;;31.80;40.00
4814;BME280;15375;48.540;9.268;2023-06-26T08:14:30;97319.41;;;31.60;39.55
4814;BME280;15375;48.540;9.268;2023-06-26T08:16:56;97312.88;;;31.80;39.78
4814;BME280;15375;48.540;9.268;2023-06-26T08:19:22;97317.81;;;32.33;39.14
4814;BME280;15375;48.540;9.268;2023-06-26T08:21:47;97305.03;;;32.24;38.83
4814;BME280;15375;48.540;9.268;2023-06-26T08:24:13;97317.47;;;32.21;39.07
4814;BME280;15375;48.540;9.268;2023-06-26T08:26:41;97311.81;;;32.21;39.51
4814;BME280;15375;48.540;9.268;2023-06-26T08:29:07;97291.19;;;31.45;40.22
4814;BME280;15375;48.540;9.268;2023-06-26T08:31:41;97304.28;;;32.08;39.04
4814;BME280;15375;48.540;9.268;2023-06-26T08:34:07;97294.88;;;32.59;38.11
4814;BME280;15375;48.540;9.268;2023-06-26T08:36:33;97291.97;;;32.89;37.99
4814;BME280;15375;48.540;9.268;2023-06-26T08:38:58;97288.97;;;32.87;38.01
4814;BME280;15375;48.540;9.268;2023-06-26T08:41:24;97289.19;;;32.66;37.47
4814;BME280;15375;48.540;9.268;2023-06-26T08:43:49;97289.81;;;33.20;37.77
4814;BME280;15375;48.540;9.268;2023-06-26T08:46:18;97290.50;;;32.73;38.90
4814;BME280;15375;48.540;9.268;2023-06-26T08:48:49;97283.41;;;33.19;38.19
4814;BME280;15375;48.540;9.268;2023-06-26T08:51:17;97300.19;;;33.17;39.07
4814;BME280;15375;48.540;9.268;2023-06-26T08:53:55;97280.06;;;33.46;37.90
4814;BME280;15375;48.540;9.268;2023-06-26T08:56:27;97303.63;;;32.93;38.32
4814;BME280;15375;48.540;9.268;2023-06-26T08:58:54;97287.06;;;33.45;36.66
4814;BME280;15375;48.540;9.268;2023-06-26T09:01:20;97296.50;;;33.39;37.47
4814;BME280;15375;48.540;9.268;2023-06-26T09:03:46;97291.00;;;33.41;38.27
4814;BME280;15375;48.540;9.268;2023-06-26T09:06:11;97288.88;;;33.17;38.64
4814;BME280;15375;48.540;9.268;2023-06-26T09:08:37;97288.91;;;33.50;36.42
4814;BME280;15375;48.540;9.268;2023-06-26T09:11:02;97274.81;;;32.95;37.08
4814;BME280;15375;48.540;9.268;2023-06-26T09:13:31;97291.34;;;33.85;37.11
4814;BME280;15375;48.540;9.268;2023-06-26T09:15:57;97274.25;;;33.36;36.62
4814;BME280;15375;48.540;9.268;2023-06-26T09:18:23;97286.66;;;33.08;36.74
4814;BME280;15375;48.540;9.268;2023-06-26T09:20:48;97282.44;;;33.24;36.65
4814;BME280;15375;48.540;9.268;2023-06-26T09:23:14;97289.81;;;33.20;37.65
4814;BME280;15375;48.540;9.268;2023-06-26T09:25:40;97285.25;;;33.24;37.52
4814;BME280;15375;48.540;9.268;2023-06-26T09:28:06;97283.81;;;33.08;36.61
4814;BME280;15375;48.540;9.268;2023-06-26T09:30:33;97275.00;;;33.04;37.46
4814;BME280;15375;48.540;9.268;2023-06-26T09:33:16;97273.94;;;33.64;35.90
4814;BME280;15375;48.540;9.268;2023-06-26T09:35:46;97276.56;;;33.94;35.25
4814;BME280;15375;48.540;9.268;2023-06-26T09:38:12;97279.00;;;34.23;36.61
4814;BME280;15375;48.540;9.268;2023-06-26T09:40:38;97268.94;;;34.29;36.00
4814;BME280;15375;48.540;9.268;2023-06-26T09:43:05;97267.06;;;34.07;36.34
4814;BME280;15375;48.540;9.268;2023-06-26T09:45:35;97267.94;;;34.34;34.79
4814;BME280;15375;48.540;9.268;2023-06-26T09:48:04;97271.81;;;33.97;35.47
4814;BME280;15375;48.540;9.268;2023-06-26T09:50:30;97267.16;;;33.92;35.76
4814;BME280;15375;48.540;9.268;2023-06-26T09:53:10;97259.66;;;34.12;34.42
4814;BME280;15375;48.540;9.268;2023-06-26T09:55:36;97252.06;;;34.39;34.68
4814;BME280;15375;48.540;9.268;2023-06-26T09:58:03;97252.53;;;34.03;34.89
4814;BME280;15375;48.540;9.268;2023-06-26T10:00:29;97258.91;;;34.53;35.34
4814;BME280;15375;48.540;9.268;2023-06-26T10:02:56;97233.25;;;33.60;35.06
4814;BME280;15375;48.540;9.268;2023-06-26T10:05:21;97239.59;;;33.92;35.38
4814;BME280;15375;48.540;9.268;2023-06-26T10:07:47;97233.88;;;34.67;34.25
4814;BME280;15375;48.540;9.268;2023-06-26T10:10:13;97251.34;;;34.55;34.73
4814;BME280;15375;48.540;9.268;2023-06-26T10:12:43;97245.31;;;34.51;35.10
4814;BME280;15375;48.540;9.268;2023-06-26T10:15:12;97250.81;;;35.01;35.31
4814;BME280;15375;48.540;9.268;2023-06-26T10:17:53;97247.72;;;35.23;34.81
4814;BME280;15375;48.540;9.268;2023-06-26T10:20:20;97250.91;;;35.91;34.04
4814;BME280;15375;48.540;9.268;2023-06-26T10:22:46;97254.56;;;35.64;34.31
4814;BME280;15375;48.540;9.268;2023-06-26T10:25:17;97232.94;;;34.64;34.47
4814;BME280;15375;48.540;9.268;2023-06-26T10:27:48;97255.75;;;34.24;34.67
4814;BME280;15375;48.540;9.268;2023-06-26T10:30:17;97254.63;;;33.78;36.03
4814;BME280;15375;48.540;9.268;2023-06-26T10:32:45;97240.59;;;33.87;35.00
4814;BME280;15375;48.540;9.268;2023-06-26T10:35:11;97248.78;;;33.43;34.81
4814;BME280;15375;48.540;9.268;2023-06-26T10:37:43;97250.72;;;33.33;35.11
4814;BME280;15375;48.540;9.268;2023-06-26T10:40:09;97228.63;;;34.21;35.42
4814;BME280;15375;48.540;9.268;2023-06-26T10:42:37;97250.47;;;34.45;33.99
4814;BME280;15375;48.540;9.268;2023-06-26T10:45:11;97252.47;;;34.52;33.30
4814;BME280;15375;48.540;9.268;2023-06-26T10:47:39;97251.97;;;35.32;33.67
4814;BME280;15375;48.540;9.268;2023-06-26T10:50:26;97257.56;;;35.22;33.34
4814;BME280;15375;48.540;9.268;2023-06-26T10:55:43;97253.66;;;35.18;33.55
4814;BME280;15375;48.540;9.268;2023-06-26T10:58:31;97250.66;;;34.64;33.41
4814;BME280;15375;48.540;9.268;2023-06-26T11:01:17;97255.22;;;34.01;34.06
4814;BME280;15375;48.540;9.268;2023-06-26T11:04:01;97262.03;;;33.73;34.82
4814;BME280;15375;48.540;9.268;2023-06-26T11:06:30;97243.97;;;33.29;34.83
4814;BME280;15375;48.540;9.268;2023-06-26T11:09:07;97259.19;;;33.33;35.84
4814;BME280;15375;48.540;9.268;2023-06-26T11:14:17;97250.53;;;34.21;33.52
4814;BME280;15375;48.540;9.268;2023-06-26T11:16:43;97265.06;;;33.68;35.81
4814;BME280;15375;48.540;9.268;2023-06-26T11:19:13;97259.25;;;33.26;36.61
4814;BME280;15375;48.540;9.268;2023-06-26T11:21:39;97259.47;;;32.35;37.02
4814;BME280;15375;48.540;9.268;2023-06-26T11:24:08;97268.19;;;32.14;37.63
4814;BME280;15375;48.540;9.268;2023-06-26T11:26:38;97267.41;;;32.22;37.55
4814;BME280;15375;48.540;9.268;2023-06-26T11:29:04;97264.56;;;32.52;37.89
4814;BME280;15375;48.540;9.268;2023-06-26T11:31:34;97261.81;;;32.92;37.29
4814;BME280;15375;48.540;9.268;2023-06-26T11:34:02;97250.06;;;33.58;36.32
4814;BME280;15375;48.540;9.268;2023-06-26T11:36:28;97279.63;;;33.89;36.27
4814;BME280;15375;48.540;9.268;2023-06-26T11:38:59;97281.56;;;33.07;37.20
4814;BME280;15375;48.540;9.268;2023-06-26T11:41:26;97301.63;;;32.41;38.65
4814;BME280;15375;48.540;9.268;2023-06-26T11:43:52;97286.69;;;32.86;38.88
4814;BME280;15375;48.540;9.268;2023-06-26T11:46:22;97295.69;;;32.99;37.99
4814;BME280;15375;48.540;9.268;2023-06-26T11:48:48;97300.22;;;33.50;38.06
4814;BME280;15375;48.540;9.268;2023-06-26T11:51:17;97284.19;;;33.12;38.40
4814;BME280;15375;48.540;9.268;2023-06-26T11:53:44;97302.56;;;33.28;40.23
4814;BME280;15375;48.540;9.268;2023-06-26T11:56:10;97296.66;;;32.94;39.47
4814;BME280;15375;48.540;9.268;2023-06-26T11:58:36;97294.81;;;33.36;38.92
4814;BME280;15375;48.540;9.268;2023-06-26T12:01:02;97286.59;;;33.16;39.75
4814;BME280;15375;48.540;9.268;2023-06-26T12:03:29;97294.75;;;33.12;40.21
4814;BME280;15375;48.540;9.268;2023-06-26T12:05:55;97290.06;;;33.07;38.67
4814;BME280;15375;48.540;9.268;2023-06-26T12:08:21;97307.78;;;32.92;38.27
4814;BME280;15375;48.540;9.268;2023-06-26T12:10:47;97292.38;;;32.78;38.56
4814;BME280;15375;48.540;9.268;2023-06-26T12:13:12;97278.16;;;33.01;37.65
4814;BME280;15375;48.540;9.268;2023-06-26T12:15:38;97286.84;;;33.10;38.21
4814;BME280;15375;48.540;9.268;2023-06-26T12:18:09;97297.09;;;33.38;38.59
4814;BME280;15375;48.540;9.268;2023-06-26T12:20:39;97309.28;;;33.48;37.53
4814;BME280;15375;48.540;9.268;2023-06-26T12:23:11;97290.44;;;33.03;38.54
4814;BME280;15375;48.540;9.268;2023-06-26T12:25:37;97292.13;;;32.99;37.89
4814;BME280;15375;48.540;9.268;2023-06-26T12:28:02;97290.19;;;33.16;37.99
4814;BME280;15375;48.540;9.268;2023-06-26T12:30:27;97303.34;;;32.29;40.05
4814;BME280;15375;48.540;9.268;2023-06-26T12:32:53;97293.56;;;32.37;38.71
4814;BME280;15375;48.540;9.268;2023-06-26T12:35:18;97306.81;;;31.53;40.25
4814;BME280;15375;48.540;9.268;2023-06-26T12:37:44;97309.31;;;31.21;40.65
4814;BME280;15375;48.540;9.268;2023-06-26T12:40:20;97312.31;;;31.67;41.08
4814;BME280;15375;48.540;9.268;2023-06-26T12:42:48;97299.72;;;31.75;40.50
4814;BME280;15375;48.540;9.268;2023-06-26T12:45:14;97297.88;;;32.08;39.58
4814;BME280;15375;48.540;9.268;2023-06-26T12:47:40;97293.72;;;31.94;40.62
4814;BME280;15375;48.540;9.268;2023-06-26T12:50:09;97305.22;;;32.26;40.51
4814;BME280;15375;48.540;9.268;2023-06-26T12:52:34;97305.59;;;32.38;39.12
4814;BME280;15375;48.540;9.268;2023-06-26T12:55:00;97258.75;;;31.97;40.11
4814;BME280;15375;48.540;9.268;2023-06-26T12:57:25;97297.88;;;32.46;40.05
4814;BME280;15375;48.540;9.268;2023-06-26T12:59:51;97295.97;;;32.63;39.23
4814;BME280;15375;48.540;9.268;2023-06-26T13:02:17;97300.47;;;32.74;40.30
4814;BME280;15375;48.540;9.268;2023-06-26T13:04:42;97273.78;;;32.67;39.61
4814;BME280;15375;48.540;9.268;2023-06-26T13:07:09;97278.66;;;32.67;39.65
4814;BME280;15375;48.540;9.268;2023-06-26T13:09:36;97256.09;;;32.44;39.98
4814;BME280;15375;48.540;9.268;2023-06-26T13:12:02;97272.28;;;32.59;40.39
4814;BME280;15375;48.540;9.268;2023-06-26T13:14:32;97277.75;;;32.34;41.28
4814;BME280;15375;48.540;9.268;2023-06-26T13:16:57;97273.06;;;32.29;41.13
4814;BME280;15375;48.540;9.268;2023-06-26T13:19:22;97278.88;;;32.24;41.82
4814;BME280;15375;48.540;9.268;2023-06-26T13:21:48;97279.97;;;31.75;43.03